sensor_id;sensor_type;location;lat;lon;timestamp;P1;durP1;ratioP1;P2;durP2;ratioP2
79526;SDS011;68974;47.754;-3.364;2023-05-20T00:01:57;11.60;;;5.25;;
79526;SDS011;68974;47.754;-3.364;2023-05-20T00:04:22;6.90;;;4.05;;
79526;SDS011;68974;47.754;-3.364;2023-05-20T00:06:48;7.25;;;3.75;;
79526;SDS011;68974;47.754;-3.364;2023-05-20T00:09:13;6.57;;;4.20;;
79526;SDS011;68974;47.754;-3.364;2023-05-20T00:11:38;8.35;;;4.45;;
79526;SDS011;68974;47.754;-3.364;2023-05-20T00:14:04;6.90;;;4.03;;
79526;SDS011;68974;47.754;-3.364;2023-05-20T00:16:30;9.98;;;4.50;;
79526;SDS011;68974;47.754;-3.364;2023-05-20T00:18:55;8.80;;;4.25;;
79526;SDS011;68974;47.754;-3.364;2023-05-20T00:21:21;11.05;;;5.28;;
79526;SDS011;68974;47.754;-3.364;2023-05-20T00:23:47;8.32;;;4.28;;
79526;SDS011;68974;47.754;-3.364;2023-05-20T00:26:12;15.73;;;4.55;;
79526;SDS011;68974;47.754;-3.364;2023-05-20T00:28:37;11.55;;;4.53;;
79526;SDS011;68974;47.754;-3.364;2023-05-20T00:31:03;15.43;;;5.25;;
79526;SDS011;68974;47.754;-3.364;2023-05-20T00:33:29;7.93;;;4.25;;
79526;SDS011;68974;47.754;-3.364;2023-05-20T00:35:54;9.07;;;3.92;;
79526;SDS011;68974;47.754;-3.364;2023-05-20T00:38:19;6.78;;;3.63;;
79526;SDS011;68974;47.754;-3.364;2023-05-20T00:40:45;13.75;;;4.00;;
79526;SDS011;68974;47.754;-3.364;2023-05-20T00:43:10;8.75;;;4.00;;
79526;SDS011;68974;47.754;-3.364;2023-05-20T00:45:36;8.98;;;4.25;;
79526;SDS011;68974;47.754;-3.364;2023-05-20T00:48:02;7.80;;;3.90;;
79526;SDS011;68974;47.754;-3.364;2023-05-20T00:50:29;7.65;;;3.70;;
79526;SDS011;68974;47.754;-3.364;2023-05-20T00:52:55;11.88;;;5.07;;
79526;SDS011;68974;47.754;-3.364;2023-05-20T00:55:22;8.40;;;4.30;;
79526;SDS011;68974;47.754;-3.364;2023-05-20T00:57:48;7.03;;;4.07;;
79526;SDS011;68974;47.754;-3.364;2023-05-20T01:00:14;10.25;;;4.22;;
79526;SDS011;68974;47.754;-3.364;2023-05-20T01:02:40;10.63;;;4.50;;
79526;SDS011;68974;47.754;-3.364;2023-05-20T01:05:05;6.28;;;4.03;;
79526;SDS011;68974;47.754;-3.364;2023-05-20T01:07:31;9.27;;;5.13;;
79526;SDS011;68974;47.754;-3.364;2023-05-20T01:09:57;9.48;;;4.55;;
79526;SDS011;68974;47.754;-3.364;2023-05-20T01:12:28;6.63;;;4.35;;
79526;SDS011;68974;47.754;-3.364;2023-05-20T01:15:00;9.75;;;4.53;;
79526;SDS011;68974;47.754;-3.364;2023-05-20T01:17:31;7.57;;;4.53;;
79526;SDS011;68974;47.754;-3.364;2023-05-20T01:19:58;8.27;;;4.25;;
79526;SDS011;68974;47.754;-3.364;2023-05-20T01:22:25;13.85;;;4.50;;
79526;SDS011;68974;47.754;-3.364;2023-05-20T01:24:51;7.57;;;5.38;;
79526;SDS011;68974;47.754;-3.364;2023-05-20T01:27:18;9.13;;;4.35;;
79526;SDS011;68974;47.754;-3.364;2023-05-20T01:29:45;12.15;;;5.03;;
79526;SDS011;68974;47.754;-3.364;2023-05-20T01:32:18;8.63;;;4.65;;
79526;SDS011;68974;47.754;-3.364;2023-05-20T01:35:02;10.00;;;4.43;;
79526;SDS011;68974;47.754;-3.364;2023-05-20T01:37:29;13.88;;;5.35;;
79526;SDS011;68974;47.754;-3.364;2023-05-20T01:39:55;7.78;;;4.32;;
79526;SDS011;68974;47.754;-3.364;2023-05-20T01:42:21;10.10;;;4.35;;
79526;SDS011;68974;47.754;-3.364;2023-05-20T01:44:50;10.02;;;4.20;;
79526;SDS011;68974;47.754;-3.364;2023-05-20T01:47:15;8.68;;;4.57;;
79526;SDS011;68974;47.754;-3.364;2023-05-20T01:49:41;9.93;;;4.32;;
79526;SDS011;68974;47.754;-3.364;2023-05-20T01:52:06;8.90;;;5.80;;
79526;SDS011;68974;47.754;-3.364;2023-05-20T01:54:31;6.70;;;4.68;;
79526;SDS011;68974;47.754;-3.364;2023-05-20T01:56:57;8.25;;;4.55;;
79526;SDS011;68974;47.754;-3.364;2023-05-20T01:59:22;9.63;;;4.50;;
79526;SDS011;68974;47.754;-3.364;2023-05-20T02:01:48;9.20;;;4.55;;
79526;SDS011;68974;47.754;-3.364;2023-05-20T02:04:13;12.30;;;4.70;;
79526;SDS011;68974;47.754;-3.364;2023-05-20T02:06:38;12.30;;;4.28;;
79526;SDS011;68974;47.754;-3.364;2023-05-20T02:09:04;11.60;;;4.63;;
79526;SDS011;68974;47.754;-3.364;2023-05-20T02:11:30;8.25;;;4.25;;
79526;SDS011;68974;47.754;-3.364;2023-05-20T02:13:55;12.73;;;5.15;;
79526;SDS011;68974;47.754;-3.364;2023-05-20T02:16:21;9.82;;;4.50;;
79526;SDS011;68974;47.754;-3.364;2023-05-20T02:18:46;9.40;;;4.65;;
79526;SDS011;68974;47.754;-3.364;2023-05-20T02:21:12;12.82;;;4.78;;
79526;SDS011;68974;47.754;-3.364;2023-05-20T02:23:37;8.20;;;4.22;;
79526;SDS011;68974;47.754;-3.364;2023-05-20T02:26:03;8.18;;;4.72;;
79526;SDS011;68974;47.754;-3.364;2023-05-20T02:28:28;7.03;;;4.18;;
79526;SDS011;68974;47.754;-3.364;2023-05-20T02:30:54;8.80;;;4.50;;
79526;SDS011;68974;47.754;-3.364;2023-05-20T02:33:19;8.80;;;4.57;;
79526;SDS011;68974;47.754;-3.364;2023-05-20T02:35:44;9.35;;;5.00;;
79526;SDS011;68974;47.754;-3.364;2023-05-20T02:38:10;8.82;;;4.38;;
79526;SDS011;68974;47.754;-3.364;2023-05-20T02:40:36;12.25;;;4.80;;
79526;SDS011;68974;47.754;-3.364;2023-05-20T02:43:02;9.10;;;4.30;;
79526;SDS011;68974;47.754;-3.364;2023-05-20T02:45:27;11.02;;;4.13;;
79526;SDS011;68974;47.754;-3.364;2023-05-20T02:47:53;10.48;;;4.82;;
79526;SDS011;68974;47.754;-3.364;2023-05-20T02:50:18;9.63;;;4.25;;
79526;SDS011;68974;47.754;-3.364;2023-05-20T02:52:44;6.65;;;4.15;;
79526;SDS011;68974;47.754;-3.364;2023-05-20T02:55:09;8.77;;;4.88;;
79526;SDS011;68974;47.754;-3.364;2023-05-20T02:57:35;10.82;;;4.63;;
79526;SDS011;68974;47.754;-3.364;2023-05-20T03:00:04;7.13;;;4.63;;
79526;SDS011;68974;47.754;-3.364;2023-05-20T03:02:31;9.63;;;4.35;;
79526;SDS011;68974;47.754;-3.364;2023-05-20T03:04:57;9.60;;;5.15;;
79526;SDS011;68974;47.754;-3.364;2023-05-20T03:07:22;8.63;;;4.47;;
79526;SDS011;68974;47.754;-3.364;2023-05-20T03:09:48;8.18;;;4.05;;
79526;SDS011;68974;47.754;-3.364;2023-05-20T03:12:13;7.25;;;3.90;;
79526;SDS011;68974;47.754;-3.364;2023-05-20T03:14:39;11.00;;;4.40;;
79526;SDS011;68974;47.754;-3.364;2023-05-20T03:17:04;9.30;;;4.90;;
79526;SDS011;68974;47.754;-3.364;2023-05-20T03:19:30;6.07;;;3.30;;
79526;SDS011;68974;47.754;-3.364;2023-05-20T03:21:55;5.88;;;3.53;;
79526;SDS011;68974;47.754;-3.364;2023-05-20T03:24:21;9.10;;;3.83;;
79526;SDS011;68974;47.754;-3.364;2023-05-20T03:26:47;9.52;;;3.53;;
79526;SDS011;68974;47.754;-3.364;2023-05-20T03:29:13;7.22;;;3.90;;
79526;SDS011;68974;47.754;-3.364;2023-05-20T03:31:38;6.10;;;3.58;;
79526;SDS011;68974;47.754;-3.364;2023-05-20T03:34:04;8.38;;;3.88;;
79526;SDS011;68974;47.754;-3.364;2023-05-20T03:36:29;8.45;;;3.95;;
79526;SDS011;68974;47.754;-3.364;2023-05-20T03:38:55;14.07;;;3.67;;
79526;SDS011;68974;47.754;-3.364;2023-05-20T03:41:20;6.17;;;3.60;;
79526;SDS011;68974;47.754;-3.364;2023-05-20T03:43:46;5.95;;;3.45;;
79526;SDS011;68974;47.754;-3.364;2023-05-20T03:46:11;8.35;;;4.13;;
79526;SDS011;68974;47.754;-3.364;2023-05-20T03:48:37;9.52;;;3.85;;
79526;SDS011;68974;47.754;-3.364;2023-05-20T03:51:02;8.15;;;3.83;;
79526;SDS011;68974;47.754;-3.364;2023-05-20T03:53:28;10.52;;;4.22;;
79526;SDS011;68974;47.754;-3.364;2023-05-20T03:55:53;8.57;;;3.80;;
79526;SDS011;68974;47.754;-3.364;2023-05-20T03:58:18;14.63;;;3.90;;
79526;SDS011;68974;47.754;-3.364;2023-05-20T04:00:46;8.88;;;4.00;;
79526;SDS011;68974;47.754;-3.364;2023-05-20T04:03:12;4.43;;;3.60;;
79526;SDS011;68974;47.754;-3.364;2023-05-20T04:05:37;6.38;;;3.60;;
79526;SDS011;68974;47.754;-3.364;2023-05-20T04:08:03;6.53;;;3.60;;
79526;SDS011;68974;47.754;-3.364;2023-05-20T04:10:29;8.02;;;4.32;;
79526;SDS011;68974;47.754;-3.364;2023-05-20T04:12:56;8.45;;;4.00;;
79526;SDS011;68974;47.754;-3.364;2023-05-20T04:15:22;15.27;;;4.50;;
79526;SDS011;68974;47.754;-3.364;2023-05-20T04:17:48;8.25;;;3.70;;
79526;SDS011;68974;47.754;-3.364;2023-05-20T04:20:14;8.93;;;3.67;;
79526;SDS011;68974;47.754;-3.364;2023-05-20T04:22:39;7.88;;;3.25;;
79526;SDS011;68974;47.754;-3.364;2023-05-20T04:25:05;7.45;;;3.63;;
79526;SDS011;68974;47.754;-3.364;2023-05-20T04:27:31;9.18;;;4.50;;
79526;SDS011;68974;47.754;-3.364;2023-05-20T04:30:01;7.68;;;3.92;;
79526;SDS011;68974;47.754;-3.364;2023-05-20T04:34:54;11.67;;;4.80;;
79526;SDS011;68974;47.754;-3.364;2023-05-20T04:37:20;6.80;;;4.22;;
79526;SDS011;68974;47.754;-3.364;2023-05-20T04:39:46;6.63;;;3.90;;
79526;SDS011;68974;47.754;-3.364;2023-05-20T04:42:14;11.52;;;4.00;;
79526;SDS011;68974;47.754;-3.364;2023-05-20T04:44:39;7.72;;;4.18;;
79526;SDS011;68974;47.754;-3.364;2023-05-20T04:47:05;10.13;;;4.68;;
79526;SDS011;68974;47.754;-3.364;2023-05-20T04:49:33;8.10;;;4.10;;
79526;SDS011;68974;47.754;-3.364;2023-05-20T04:51:58;8.50;;;4.25;;
79526;SDS011;68974;47.754;-3.364;2023-05-20T04:54:24;11.60;;;4.10;;
79526;SDS011;68974;47.754;-3.364;2023-05-20T04:56:50;8.80;;;4.05;;
79526;SDS011;68974;47.754;-3.364;2023-05-20T04:59:15;9.10;;;4.35;;
79526;SDS011;68974;47.754;-3.364;2023-05-20T05:01:44;7.50;;;4.40;;
79526;SDS011;68974;47.754;-3.364;2023-05-20T05:04:09;9.65;;;4.53;;
79526;SDS011;68974;47.754;-3.364;2023-05-20T05:06:35;7.85;;;3.83;;
79526;SDS011;68974;47.754;-3.364;2023-05-20T05:09:00;10.43;;;4.72;;
79526;SDS011;68974;47.754;-3.364;2023-05-20T05:11:26;8.40;;;4.07;;
79526;SDS011;68974;47.754;-3.364;2023-05-20T05:13:51;5.68;;;3.83;;
79526;SDS011;68974;47.754;-3.364;2023-05-20T05:16:17;9.13;;;4.05;;
79526;SDS011;68974;47.754;-3.364;2023-05-20T05:18:42;9.50;;;4.10;;
79526;SDS011;68974;47.754;-3.364;2023-05-20T05:21:07;7.35;;;4.22;;
79526;SDS011;68974;47.754;-3.364;2023-05-20T05:23:33;9.55;;;4.30;;
79526;SDS011;68974;47.754;-3.364;2023-05-20T05:25:58;10.65;;;4.88;;
79526;SDS011;68974;47.754;-3.364;2023-05-20T05:28:24;8.80;;;4.22;;
79526;SDS011;68974;47.754;-3.364;2023-05-20T05:30:50;7.13;;;4.18;;
79526;SDS011;68974;47.754;-3.364;2023-05-20T05:33:17;7.80;;;3.45;;
79526;SDS011;68974;47.754;-3.364;2023-05-20T05:35:43;9.48;;;4.45;;
79526;SDS011;68974;47.754;-3.364;2023-05-20T05:38:08;8.60;;;4.25;;
79526;SDS011;68974;47.754;-3.364;2023-05-20T05:40:34;9.90;;;4.10;;
79526;SDS011;68974;47.754;-3.364;2023-05-20T05:43:00;8.68;;;4.10;;
79526;SDS011;68974;47.754;-3.364;2023-05-20T05:45:25;8.07;;;3.42;;
79526;SDS011;68974;47.754;-3.364;2023-05-20T05:47:51;6.45;;;4.00;;
79526;SDS011;68974;47.754;-3.364;2023-05-20T05:50:16;9.80;;;4.07;;
79526;SDS011;68974;47.754;-3.364;2023-05-20T05:52:41;9.18;;;4.25;;
79526;SDS011;68974;47.754;-3.364;2023-05-20T05:55:07;9.52;;;4.20;;
79526;SDS011;68974;47.754;-3.364;2023-05-20T05:57:34;7.30;;;4.05;;
79526;SDS011;68974;47.754;-3.364;2023-05-20T06:00:00;10.05;;;4.20;;
79526;SDS011;68974;47.754;-3.364;2023-05-20T06:02:25;8.68;;;3.72;;
79526;SDS011;68974;47.754;-3.364;2023-05-20T06:04:51;10.20;;;3.65;;
79526;SDS011;68974;47.754;-3.364;2023-05-20T06:07:16;8.18;;;3.65;;
79526;SDS011;68974;47.754;-3.364;2023-05-20T06:09:42;9.52;;;3.85;;
79526;SDS011;68974;47.754;-3.364;2023-05-20T06:12:08;9.38;;;3.83;;
79526;SDS011;68974;47.754;-3.364;2023-05-20T06:14:33;11.38;;;4.13;;
79526;SDS011;68974;47.754;-3.364;2023-05-20T06:16:59;6.90;;;4.05;;
79526;SDS011;68974;47.754;-3.364;2023-05-20T06:19:24;12.25;;;4.38;;
79526;SDS011;68974;47.754;-3.364;2023-05-20T06:21:50;8.35;;;4.20;;
79526;SDS011;68974;47.754;-3.364;2023-05-20T06:24:15;7.25;;;3.72;;
79526;SDS011;68974;47.754;-3.364;2023-05-20T06:26:40;13.07;;;4.10;;
79526;SDS011;68974;47.754;-3.364;2023-05-20T06:29:06;7.72;;;4.28;;
79526;SDS011;68974;47.754;-3.364;2023-05-20T06:31:31;13.68;;;3.92;;
79526;SDS011;68974;47.754;-3.364;2023-05-20T06:33:57;6.55;;;3.33;;
79526;SDS011;68974;47.754;-3.364;2023-05-20T06:36:22;10.57;;;3.88;;
79526;SDS011;68974;47.754;-3.364;2023-05-20T06:38:48;7.95;;;4.03;;
79526;SDS011;68974;47.754;-3.364;2023-05-20T06:41:13;7.30;;;3.85;;
79526;SDS011;68974;47.754;-3.364;2023-05-20T06:43:39;11.50;;;4.75;;
79526;SDS011;68974;47.754;-3.364;2023-05-20T06:46:04;12.15;;;4.35;;
79526;SDS011;68974;47.754;-3.364;2023-05-20T06:48:30;7.82;;;3.35;;
79526;SDS011;68974;47.754;-3.364;2023-05-20T06:50:55;6.82;;;3.83;;
79526;SDS011;68974;47.754;-3.364;2023-05-20T06:53:21;5.28;;;3.30;;
79526;SDS011;68974;47.754;-3.364;2023-05-20T06:55:46;11.60;;;4.28;;
79526;SDS011;68974;47.754;-3.364;2023-05-20T06:58:12;11.48;;;4.07;;
79526;SDS011;68974;47.754;-3.364;2023-05-20T07:00:37;8.45;;;2.90;;
79526;SDS011;68974;47.754;-3.364;2023-05-20T07:03:03;8.90;;;3.35;;
79526;SDS011;68974;47.754;-3.364;2023-05-20T07:05:28;5.75;;;3.45;;
79526;SDS011;68974;47.754;-3.364;2023-05-20T07:07:55;7.55;;;3.67;;
79526;SDS011;68974;47.754;-3.364;2023-05-20T07:10:21;7.47;;;3.55;;
79526;SDS011;68974;47.754;-3.364;2023-05-20T07:12:46;7.90;;;3.50;;
79526;SDS011;68974;47.754;-3.364;2023-05-20T07:15:11;6.13;;;3.50;;
79526;SDS011;68974;47.754;-3.364;2023-05-20T07:17:37;6.15;;;3.53;;
79526;SDS011;68974;47.754;-3.364;2023-05-20T07:20:02;8.95;;;4.35;;
79526;SDS011;68974;47.754;-3.364;2023-05-20T07:22:28;9.25;;;3.30;;
79526;SDS011;68974;47.754;-3.364;2023-05-20T07:24:53;6.97;;;3.45;;
79526;SDS011;68974;47.754;-3.364;2023-05-20T07:27:19;6.00;;;3.53;;
79526;SDS011;68974;47.754;-3.364;2023-05-20T07:29:44;12.27;;;3.83;;
79526;SDS011;68974;47.754;-3.364;2023-05-20T07:32:10;7.55;;;3.17;;
79526;SDS011;68974;47.754;-3.364;2023-05-20T07:34:35;10.85;;;3.70;;
79526;SDS011;68974;47.754;-3.364;2023-05-20T07:37:01;8.32;;;3.90;;
79526;SDS011;68974;47.754;-3.364;2023-05-20T07:39:26;9.35;;;4.20;;
79526;SDS011;68974;47.754;-3.364;2023-05-20T07:41:52;4.88;;;3.28;;
79526;SDS011;68974;47.754;-3.364;2023-05-20T07:44:17;10.40;;;4.10;;
79526;SDS011;68974;47.754;-3.364;2023-05-20T07:46:45;8.65;;;3.28;;
79526;SDS011;68974;47.754;-3.364;2023-05-20T07:49:10;9.32;;;3.55;;
79526;SDS011;68974;47.754;-3.364;2023-05-20T07:51:36;8.77;;;3.30;;
79526;SDS011;68974;47.754;-3.364;2023-05-20T07:54:01;5.55;;;3.13;;
79526;SDS011;68974;47.754;-3.364;2023-05-20T07:56:27;8.93;;;3.20;;
79526;SDS011;68974;47.754;-3.364;2023-05-20T07:58:53;8.82;;;3.60;;
79526;SDS011;68974;47.754;-3.364;2023-05-20T08:01:20;5.05;;;2.83;;
79526;SDS011;68974;47.754;-3.364;2023-05-20T08:03:46;8.40;;;3.30;;
79526;SDS011;68974;47.754;-3.364;2023-05-20T08:06:11;7.82;;;3.40;;
79526;SDS011;68974;47.754;-3.364;2023-05-20T08:08:36;6.47;;;3.45;;
79526;SDS011;68974;47.754;-3.364;2023-05-20T08:11:04;7.72;;;3.38;;
79526;SDS011;68974;47.754;-3.364;2023-05-20T08:13:29;9.48;;;4.30;;
79526;SDS011;68974;47.754;-3.364;2023-05-20T08:15:55;11.98;;;3.55;;
79526;SDS011;68974;47.754;-3.364;2023-05-20T08:18:21;6.65;;;3.13;;
79526;SDS011;68974;47.754;-3.364;2023-05-20T08:20:46;8.07;;;3.67;;
79526;SDS011;68974;47.754;-3.364;2023-05-20T08:23:12;14.68;;;4.18;;
79526;SDS011;68974;47.754;-3.364;2023-05-20T08:25:37;6.55;;;3.83;;
79526;SDS011;68974;47.754;-3.364;2023-05-20T08:28:03;10.27;;;5.20;;
79526;SDS011;68974;47.754;-3.364;2023-05-20T08:32:56;12.55;;;3.72;;
79526;SDS011;68974;47.754;-3.364;2023-05-20T08:35:24;11.23;;;4.10;;
79526;SDS011;68974;47.754;-3.364;2023-05-20T08:37:50;8.30;;;4.40;;
79526;SDS011;68974;47.754;-3.364;2023-05-20T08:40:17;9.15;;;3.88;;
79526;SDS011;68974;47.754;-3.364;2023-05-20T08:42:47;9.48;;;4.32;;
79526;SDS011;68974;47.754;-3.364;2023-05-20T08:45:16;10.82;;;4.45;;
79526;SDS011;68974;47.754;-3.364;2023-05-20T08:47:43;6.78;;;4.30;;
79526;SDS011;68974;47.754;-3.364;2023-05-20T08:50:09;9.07;;;4.90;;
79526;SDS011;68974;47.754;-3.364;2023-05-20T08:52:36;12.57;;;5.10;;
79526;SDS011;68974;47.754;-3.364;2023-05-20T08:55:07;9.00;;;4.75;;
79526;SDS011;68974;47.754;-3.364;2023-05-20T08:57:36;8.70;;;4.05;;
79526;SDS011;68974;47.754;-3.364;2023-05-20T09:00:02;9.80;;;5.07;;
79526;SDS011;68974;47.754;-3.364;2023-05-20T09:02:35;9.68;;;4.68;;
79526;SDS011;68974;47.754;-3.364;2023-05-20T09:05:02;7.95;;;4.88;;
79526;SDS011;68974;47.754;-3.364;2023-05-20T09:07:29;11.48;;;4.50;;
79526;SDS011;68974;47.754;-3.364;2023-05-20T09:09:55;9.38;;;4.97;;
79526;SDS011;68974;47.754;-3.364;2023-05-20T09:12:21;9.73;;;5.50;;
79526;SDS011;68974;47.754;-3.364;2023-05-20T09:14:46;14.18;;;5.20;;
79526;SDS011;68974;47.754;-3.364;2023-05-20T09:17:12;10.55;;;4.55;;
79526;SDS011;68974;47.754;-3.364;2023-05-20T09:19:37;7.07;;;4.70;;
79526;SDS011;68974;47.754;-3.364;2023-05-20T09:22:03;10.13;;;4.95;;
79526;SDS011;68974;47.754;-3.364;2023-05-20T09:24:29;11.68;;;5.40;;
79526;SDS011;68974;47.754;-3.364;2023-05-20T09:26:55;8.52;;;5.28;;
79526;SDS011;68974;47.754;-3.364;2023-05-20T09:29:21;8.75;;;5.28;;
79526;SDS011;68974;47.754;-3.364;2023-05-20T09:31:47;8.48;;;5.60;;
79526;SDS011;68974;47.754;-3.364;2023-05-20T09:34:14;9.63;;;4.78;;
79526;SDS011;68974;47.754;-3.364;2023-05-20T09:36:41;12.45;;;6.30;;
79526;SDS011;68974;47.754;-3.364;2023-05-20T09:39:11;11.10;;;5.47;;
79526;SDS011;68974;47.754;-3.364;2023-05-20T09:41:41;10.98;;;5.05;;
79526;SDS011;68974;47.754;-3.364;2023-05-20T09:44:10;7.85;;;4.90;;
79526;SDS011;68974;47.754;-3.364;2023-05-20T09:46:37;10.77;;;5.30;;
79526;SDS011;68974;47.754;-3.364;2023-05-20T09:49:03;11.50;;;5.40;;
79526;SDS011;68974;47.754;-3.364;2023-05-20T09:51:32;10.70;;;4.80;;
79526;SDS011;68974;47.754;-3.364;2023-05-20T09:53:58;6.93;;;4.88;;
79526;SDS011;68974;47.754;-3.364;2023-05-20T09:56:27;14.70;;;4.88;;
79526;SDS011;68974;47.754;-3.364;2023-05-20T09:58:53;8.70;;;4.82;;
79526;SDS011;68974;47.754;-3.364;2023-05-20T10:01:23;8.43;;;5.32;;
79526;SDS011;68974;47.754;-3.364;2023-05-20T10:03:49;9.95;;;6.07;;
79526;SDS011;68974;47.754;-3.364;2023-05-20T10:11:43;6.60;;;4.30;;
79526;SDS011;68974;47.754;-3.364;2023-05-20T10:19:56;8.73;;;5.53;;
79526;SDS011;68974;47.754;-3.364;2023-05-20T10:22:27;7.00;;;4.40;;
79526;SDS011;68974;47.754;-3.364;2023-05-20T10:24:57;12.13;;;5.40;;
79526;SDS011;68974;47.754;-3.364;2023-05-20T10:27:24;8.25;;;5.50;;
79526;SDS011;68974;47.754;-3.364;2023-05-20T10:29:55;11.00;;;4.72;;
79526;SDS011;68974;47.754;-3.364;2023-05-20T10:32:28;8.10;;;4.70;;
79526;SDS011;68974;47.754;-3.364;2023-05-20T10:34:59;9.90;;;5.03;;
79526;SDS011;68974;47.754;-3.364;2023-05-20T10:37:26;7.65;;;3.97;;
79526;SDS011;68974;47.754;-3.364;2023-05-20T10:40:11;11.77;;;4.45;;
79526;SDS011;68974;47.754;-3.364;2023-05-20T10:42:37;9.40;;;4.57;;
79526;SDS011;68974;47.754;-3.364;2023-05-20T10:45:03;10.20;;;4.55;;
79526;SDS011;68974;47.754;-3.364;2023-05-20T10:47:30;7.70;;;4.45;;
79526;SDS011;68974;47.754;-3.364;2023-05-20T10:49:56;8.65;;;4.15;;
79526;SDS011;68974;47.754;-3.364;2023-05-20T10:52:26;7.90;;;4.05;;
79526;SDS011;68974;47.754;-3.364;2023-05-20T10:57:20;9.10;;;3.95;;
79526;SDS011;68974;47.754;-3.364;2023-05-20T10:59:46;7.43;;;3.88;;
79526;SDS011;68974;47.754;-3.364;2023-05-20T11:02:14;9.80;;;4.18;;
79526;SDS011;68974;47.754;-3.364;2023-05-20T11:04:44;9.55;;;4.03;;
79526;SDS011;68974;47.754;-3.364;2023-05-20T11:07:11;8.27;;;3.97;;
79526;SDS011;68974;47.754;-3.364;2023-05-20T11:09:37;10.23;;;3.75;;
79526;SDS011;68974;47.754;-3.364;2023-05-20T11:12:03;10.95;;;4.75;;
79526;SDS011;68974;47.754;-3.364;2023-05-20T11:14:28;8.02;;;3.90;;
79526;SDS011;68974;47.754;-3.364;2023-05-20T11:16:55;9.35;;;3.92;;
79526;SDS011;68974;47.754;-3.364;2023-05-20T11:19:22;5.32;;;3.60;;
79526;SDS011;68974;47.754;-3.364;2023-05-20T11:21:47;5.72;;;3.25;;
79526;SDS011;68974;47.754;-3.364;2023-05-20T11:24:13;10.80;;;3.78;;
79526;SDS011;68974;47.754;-3.364;2023-05-20T11:26:46;7.18;;;3.17;;
79526;SDS011;68974;47.754;-3.364;2023-05-20T11:29:11;6.45;;;3.13;;
79526;SDS011;68974;47.754;-3.364;2023-05-20T11:31:37;12.35;;;3.42;;
79526;SDS011;68974;47.754;-3.364;2023-05-20T11:34:03;9.40;;;4.10;;
79526;SDS011;68974;47.754;-3.364;2023-05-20T11:36:29;9.35;;;3.83;;
79526;SDS011;68974;47.754;-3.364;2023-05-20T11:38:58;7.07;;;3.53;;
79526;SDS011;68974;47.754;-3.364;2023-05-20T11:41:24;6.00;;;3.30;;
79526;SDS011;68974;47.754;-3.364;2023-05-20T11:46:23;9.30;;;3.53;;
79526;SDS011;68974;47.754;-3.364;2023-05-20T11:48:55;7.97;;;3.45;;
79526;SDS011;68974;47.754;-3.364;2023-05-20T11:51:27;9.95;;;3.42;;
79526;SDS011;68974;47.754;-3.364;2023-05-20T11:54:03;6.07;;;3.35;;
79526;SDS011;68974;47.754;-3.364;2023-05-20T11:56:34;6.32;;;2.83;;
79526;SDS011;68974;47.754;-3.364;2023-05-20T11:59:01;8.13;;;3.25;;
79526;SDS011;68974;47.754;-3.364;2023-05-20T12:01:31;8.30;;;3.65;;
79526;SDS011;68974;47.754;-3.364;2023-05-20T12:04:07;8.88;;;3.00;;
79526;SDS011;68974;47.754;-3.364;2023-05-20T12:06:33;6.57;;;2.83;;
79526;SDS011;68974;47.754;-3.364;2023-05-20T12:09:02;8.90;;;3.35;;
79526;SDS011;68974;47.754;-3.364;2023-05-20T12:11:37;9.77;;;3.78;;
79526;SDS011;68974;47.754;-3.364;2023-05-20T12:14:08;6.57;;;3.38;;
79526;SDS011;68974;47.754;-3.364;2023-05-20T12:16:34;8.90;;;3.17;;
79526;SDS011;68974;47.754;-3.364;2023-05-20T12:19:00;9.82;;;2.60;;
79526;SDS011;68974;47.754;-3.364;2023-05-20T12:21:26;6.88;;;2.67;;
79526;SDS011;68974;47.754;-3.364;2023-05-20T12:23:52;5.30;;;3.35;;
79526;SDS011;68974;47.754;-3.364;2023-05-20T12:26:24;9.50;;;2.95;;
79526;SDS011;68974;47.754;-3.364;2023-05-20T12:28:51;10.80;;;3.28;;
79526;SDS011;68974;47.754;-3.364;2023-05-20T12:31:16;6.75;;;3.05;;
79526;SDS011;68974;47.754;-3.364;2023-05-20T12:33:42;5.47;;;2.78;;
79526;SDS011;68974;47.754;-3.364;2023-05-20T12:36:07;8.02;;;3.58;;
79526;SDS011;68974;47.754;-3.364;2023-05-20T12:38:33;8.88;;;3.13;;
79526;SDS011;68974;47.754;-3.364;2023-05-20T12:40:58;7.32;;;3.40;;
79526;SDS011;68974;47.754;-3.364;2023-05-20T12:43:24;8.15;;;3.08;;
79526;SDS011;68974;47.754;-3.364;2023-05-20T12:45:49;7.07;;;3.20;;
79526;SDS011;68974;47.754;-3.364;2023-05-20T12:48:16;8.63;;;3.45;;
79526;SDS011;68974;47.754;-3.364;2023-05-20T12:50:41;6.35;;;2.80;;
79526;SDS011;68974;47.754;-3.364;2023-05-20T12:53:07;6.00;;;2.72;;
79526;SDS011;68974;47.754;-3.364;2023-05-20T12:55:32;7.75;;;3.25;;
79526;SDS011;68974;47.754;-3.364;2023-05-20T12:57:58;6.95;;;3.03;;
79526;SDS011;68974;47.754;-3.364;2023-05-20T13:00:23;6.70;;;3.00;;
79526;SDS011;68974;47.754;-3.364;2023-05-20T13:02:49;6.30;;;2.63;;
79526;SDS011;68974;47.754;-3.364;2023-05-20T13:05:15;5.75;;;2.90;;
79526;SDS011;68974;47.754;-3.364;2023-05-20T13:07:41;11.02;;;2.90;;
79526;SDS011;68974;47.754;-3.364;2023-05-20T13:10:06;6.43;;;3.33;;
79526;SDS011;68974;47.754;-3.364;2023-05-20T13:12:33;7.07;;;3.55;;
79526;SDS011;68974;47.754;-3.364;2023-05-20T13:14:58;7.57;;;3.15;;
79526;SDS011;68974;47.754;-3.364;2023-05-20T13:17:24;6.47;;;2.97;;
79526;SDS011;68974;47.754;-3.364;2023-05-20T13:19:49;8.52;;;3.40;;
79526;SDS011;68974;47.754;-3.364;2023-05-20T13:22:15;9.05;;;3.15;;
79526;SDS011;68974;47.754;-3.364;2023-05-20T13:24:40;4.72;;;3.25;;
79526;SDS011;68974;47.754;-3.364;2023-05-20T13:27:06;8.35;;;2.75;;
79526;SDS011;68974;47.754;-3.364;2023-05-20T13:29:32;5.70;;;2.80;;
79526;SDS011;68974;47.754;-3.364;2023-05-20T13:31:57;6.30;;;2.78;;
79526;SDS011;68974;47.754;-3.364;2023-05-20T13:34:23;7.53;;;2.85;;
79526;SDS011;68974;47.754;-3.364;2023-05-20T13:36:48;7.32;;;2.75;;
79526;SDS011;68974;47.754;-3.364;2023-05-20T13:39:14;6.55;;;3.20;;
79526;SDS011;68974;47.754;-3.364;2023-05-20T13:41:40;12.50;;;3.30;;
79526;SDS011;68974;47.754;-3.364;2023-05-20T13:44:05;6.47;;;2.58;;
79526;SDS011;68974;47.754;-3.364;2023-05-20T13:46:31;6.40;;;2.78;;
79526;SDS011;68974;47.754;-3.364;2023-05-20T13:48:56;8.98;;;2.90;;
79526;SDS011;68974;47.754;-3.364;2023-05-20T13:51:22;5.10;;;2.85;;
79526;SDS011;68974;47.754;-3.364;2023-05-20T13:53:47;6.00;;;2.83;;
79526;SDS011;68974;47.754;-3.364;2023-05-20T13:56:12;6.47;;;3.50;;
79526;SDS011;68974;47.754;-3.364;2023-05-20T13:58:38;4.68;;;2.45;;
79526;SDS011;68974;47.754;-3.364;2023-05-20T14:01:04;5.15;;;2.50;;
79526;SDS011;68974;47.754;-3.364;2023-05-20T14:03:30;7.50;;;2.63;;
79526;SDS011;68974;47.754;-3.364;2023-05-20T14:08:22;6.63;;;2.58;;
79526;SDS011;68974;47.754;-3.364;2023-05-20T14:10:48;4.93;;;2.60;;
79526;SDS011;68974;47.754;-3.364;2023-05-20T14:13:13;7.45;;;2.92;;
79526;SDS011;68974;47.754;-3.364;2023-05-20T14:15:39;8.85;;;2.90;;
79526;SDS011;68974;47.754;-3.364;2023-05-20T14:18:05;6.93;;;3.20;;
79526;SDS011;68974;47.754;-3.364;2023-05-20T14:20:30;6.45;;;3.25;;
79526;SDS011;68974;47.754;-3.364;2023-05-20T14:22:55;5.35;;;2.70;;
79526;SDS011;68974;47.754;-3.364;2023-05-20T14:25:21;7.15;;;3.10;;
79526;SDS011;68974;47.754;-3.364;2023-05-20T14:27:46;7.00;;;2.95;;
79526;SDS011;68974;47.754;-3.364;2023-05-20T14:30:12;6.15;;;2.50;;
79526;SDS011;68974;47.754;-3.364;2023-05-20T14:32:37;5.25;;;3.20;;
79526;SDS011;68974;47.754;-3.364;2023-05-20T14:35:03;6.00;;;2.83;;
79526;SDS011;68974;47.754;-3.364;2023-05-20T14:37:29;5.65;;;2.50;;
79526;SDS011;68974;47.754;-3.364;2023-05-20T14:39:55;6.90;;;2.83;;
79526;SDS011;68974;47.754;-3.364;2023-05-20T14:42:20;9.77;;;2.55;;
79526;SDS011;68974;47.754;-3.364;2023-05-20T14:44:46;6.28;;;2.45;;
79526;SDS011;68974;47.754;-3.364;2023-05-20T14:47:11;6.88;;;2.83;;
79526;SDS011;68974;47.754;-3.364;2023-05-20T14:49:40;5.40;;;2.75;;